createdAt,value
2023-03-13T00:02:47.265Z,99208.50
2023-03-13T00:06:49.084Z,99214.50
2023-03-13T00:10:50.847Z,99217.81
2023-03-13T00:14:52.642Z,99207.03
2023-03-13T00:18:54.937Z,99205.69
2023-03-13T00:22:56.941Z,99198.84
2023-03-13T00:27:03.271Z,99212.38
2023-03-13T00:31:16.871Z,99207.06
2023-03-13T00:35:19.239Z,99210.63
2023-03-13T00:39:21.176Z,99213.91
2023-03-13T00:43:23.001Z,99216.84
2023-03-13T00:47:25.135Z,99216.38
2023-03-13T00:51:27.609Z,99214.28
2023-03-13T00:55:29.522Z,99205.44
2023-03-13T00:59:31.242Z,99208.72
2023-03-13T01:03:33.086Z,99205.44
2023-03-13T01:07:34.894Z,99199.75
2023-03-13T01:11:38.680Z,99191.75
2023-03-13T01:15:40.550Z,99190.13
2023-03-13T01:19:42.288Z,99171.53
2023-03-13T01:23:44.092Z,99180.38
2023-03-13T01:27:45.836Z,99170.22
2023-03-13T01:31:47.829Z,99167.94
2023-03-13T01:35:50.133Z,99163.09
2023-03-13T01:39:52.011Z,99162.44
2023-03-13T01:43:55.593Z,99162.09
2023-03-13T01:47:57.504Z,99153.56
2023-03-13T01:52:03.947Z,99142.16
2023-03-13T01:56:07.697Z,99139.91
2023-03-13T02:00:30.840Z,99144.28
2023-03-13T02:04:37.574Z,99131.41
2023-03-13T02:08:44.664Z,99134.69
2023-03-13T02:12:46.414Z,99134.97
2023-03-13T02:16:51.963Z,99124.69
2023-03-13T02:20:56.681Z,99112.63
2023-03-13T02:25:35.807Z,99103.94
2023-03-13T02:29:37.677Z,99105.75
2023-03-13T02:33:40.649Z,99103.41
2023-03-13T02:37:42.996Z,99101.59
2023-03-13T02:41:44.782Z,99114.97
2023-03-13T02:46:10.953Z,99110.75
2023-03-13T02:50:13.283Z,99111.38
2023-03-13T02:54:20.463Z,99105.47
2023-03-13T02:58:25.623Z,99114.16
2023-03-13T03:02:27.644Z,99106.72
2023-03-13T03:06:35.766Z,99105.41
2023-03-13T03:10:43.779Z,99108.53
2023-03-13T03:14:51.735Z,99108.19
2023-03-13T03:18:53.529Z,99102.66
2023-03-13T03:23:01.861Z,99099.88
2023-03-13T03:27:07.108Z,99082.44
2023-03-13T03:31:13.741Z,99078.00
2023-03-13T03:35:15.691Z,99067.06
2023-03-13T03:39:17.444Z,99065.13
2023-03-13T03:43:19.240Z,99059.56
2023-03-13T03:47:21.045Z,99038.25
2023-03-13T03:51:23.026Z,99034.63
2023-03-13T03:55:24.895Z,99017.50
2023-03-13T03:59:26.684Z,99020.81
2023-03-13T04:03:28.523Z,99003.50
2023-03-13T04:07:30.447Z,99010.03
2023-03-13T04:11:32.186Z,98999.94
2023-03-13T04:15:33.976Z,98989.16
2023-03-13T04:19:35.754Z,98990.00
2023-03-13T04:23:37.551Z,98985.59
2023-03-13T04:27:39.595Z,98972.38
2023-03-13T04:31:41.439Z,98961.94
2023-03-13T04:35:43.922Z,98964.22
2023-03-13T04:39:45.772Z,98964.72
2023-03-13T04:43:47.544Z,98941.75
2023-03-13T04:47:49.428Z,98930.47
2023-03-13T04:51:51.305Z,98923.31
2023-03-13T04:55:53.167Z,98921.50
2023-03-13T04:59:55.103Z,98914.47
2023-03-13T05:03:56.914Z,98911.22
2023-03-13T05:07:58.704Z,98909.25
2023-03-13T05:12:00.623Z,98894.59
2023-03-13T05:16:03.820Z,98887.56
2023-03-13T05:20:08.266Z,98884.78
2023-03-13T05:24:10.088Z,98872.06
2023-03-13T05:28:12.097Z,98862.25
2023-03-13T05:32:13.903Z,98848.19
2023-03-13T05:36:15.803Z,98846.53
2023-03-13T05:40:17.843Z,98850.16
2023-03-13T05:44:19.809Z,98838.50
2023-03-13T05:48:21.634Z,98834.06
2023-03-13T05:52:23.463Z,98831.47
2023-03-13T05:56:25.249Z,98813.03
2023-03-13T06:00:31.054Z,98815.56
2023-03-13T06:04:38.056Z,98808.03
2023-03-13T06:08:40.224Z,98791.03
2023-03-13T06:12:42.358Z,98780.34
2023-03-13T06:16:46.878Z,98795.84
2023-03-13T06:20:49.900Z,98803.88
2023-03-13T06:24:52.116Z,98785.41
2023-03-13T06:28:53.985Z,98775.00
2023-03-13T06:32:56.168Z,98760.47
2023-03-13T06:36:58.802Z,98756.81
2023-03-13T06:41:00.722Z,98745.19
2023-03-13T06:45:03.498Z,98729.25
2023-03-13T06:49:06.130Z,98724.28
2023-03-13T06:53:08.059Z,98719.69
2023-03-13T06:57:09.805Z,98722.75
2023-03-13T07:01:16.023Z,98707.66
2023-03-13T07:05:17.935Z,98702.38
2023-03-13T07:09:20.170Z,98709.78
2023-03-13T07:13:22.297Z,98712.22
2023-03-13T07:17:24.141Z,98707.09
2023-03-13T07:21:31.982Z,98684.56
2023-03-13T07:25:33.757Z,98691.38
2023-03-13T07:29:35.571Z,98688.66
2023-03-13T07:33:37.692Z,98674.03
2023-03-13T07:37:39.660Z,98668.13
2023-03-13T07:41:42.315Z,98669.38
2023-03-13T07:45:55.262Z,98659.09
2023-03-13T07:49:57.045Z,98644.84
2023-03-13T07:53:58.821Z,98637.09
2023-03-13T07:58:00.688Z,98632.16
2023-03-13T08:02:05.378Z,98637.00
2023-03-13T08:06:12.818Z,98640.88
2023-03-13T08:10:14.655Z,98653.50
2023-03-13T08:14:16.621Z,98658.19
2023-03-13T08:18:18.470Z,98661.19
2023-03-13T08:22:20.238Z,98653.47
2023-03-13T08:26:23.331Z,98667.91
2023-03-13T08:30:25.124Z,98678.13
2023-03-13T08:34:26.916Z,98689.78
2023-03-13T08:38:28.664Z,98678.47
2023-03-13T08:42:30.494Z,98683.91
2023-03-13T08:46:43.097Z,98677.38
2023-03-13T08:50:44.907Z,98663.53
2023-03-13T08:54:50.844Z,98648.94
2023-03-13T08:58:54.330Z,98649.06
2023-03-13T09:02:58.261Z,98632.94
2023-03-13T09:07:00.162Z,98607.94
2023-03-13T09:11:04.714Z,98614.97
2023-03-13T09:15:07.633Z,98618.38
2023-03-13T09:19:09.452Z,98603.19
2023-03-13T09:23:11.289Z,98597.09
2023-03-13T09:27:13.132Z,98611.78
2023-03-13T09:31:30.142Z,98628.31
2023-03-13T09:35:35.192Z,98616.75
2023-03-13T09:39:37.420Z,98624.97
2023-03-13T09:44:09.596Z,98642.22
2023-03-13T09:48:29.617Z,98633.44
2023-03-13T09:52:36.464Z,98630.78
2023-03-13T09:57:04.108Z,98618.56
2023-03-13T10:01:06.180Z,98605.00
2023-03-13T10:05:22.992Z,98597.19
2023-03-13T10:09:42.195Z,98594.03
2023-03-13T10:14:10.777Z,98571.09
2023-03-13T10:18:23.674Z,98556.03
2023-03-13T10:22:30.385Z,98572.69
2023-03-13T10:26:48.619Z,98564.13
2023-03-13T10:30:55.171Z,98564.88
2023-03-13T10:35:04.080Z,98571.56
2023-03-13T10:39:05.900Z,98556.25
2023-03-13T10:43:22.404Z,98565.63
2023-03-13T10:47:24.490Z,98566.66
2023-03-13T10:51:40.675Z,98582.41
2023-03-13T10:55:43.317Z,98583.84
2023-03-13T10:59:52.074Z,98572.50
2023-03-13T11:03:55.977Z,98569.25
2023-03-13T11:07:58.073Z,98571.47
2023-03-13T11:12:17.527Z,98583.78
2023-03-13T11:16:28.895Z,98584.94
2023-03-13T11:20:38.789Z,98576.97
2023-03-13T11:25:11.574Z,98589.84
2023-03-13T11:29:38.805Z,98589.84
2023-03-13T11:34:04.774Z,98599.38
2023-03-13T11:38:36.550Z,98592.25
2023-03-13T11:42:46.706Z,98597.56
2023-03-13T11:47:24.908Z,98580.56
2023-03-13T11:52:09.969Z,98592.91
2023-03-13T11:56:21.992Z,98578.34
2023-03-13T12:00:47.911Z,98581.41
2023-03-13T12:05:03.518Z,98596.75
2023-03-13T12:09:14.836Z,98547.66
2023-03-13T12:13:38.844Z,98534.50
2023-03-13T12:18:12.632Z,98531.44
2023-03-13T12:22:50.981Z,98522.50
2023-03-13T12:27:15.886Z,98470.84
2023-03-13T12:31:39.585Z,98464.19
2023-03-13T12:35:57.248Z,98479.72
2023-03-13T12:40:31.830Z,98474.31
2023-03-13T12:44:33.966Z,98442.44
2023-03-13T12:49:13.639Z,98444.63
2023-03-13T12:53:26.204Z,98426.50
2023-03-13T12:58:15.377Z,98402.84
2023-03-13T13:02:21.339Z,98432.66
2023-03-13T13:06:23.479Z,98413.75
2023-03-13T13:10:26.388Z,98426.50
2023-03-13T13:14:28.182Z,98441.16
2023-03-13T13:18:31.635Z,98432.78
2023-03-13T13:22:42.268Z,98429.91
2023-03-13T13:26:49.087Z,98423.59
2023-03-13T13:30:54.537Z,98404.03
2023-03-13T13:35:36.552Z,98379.88
2023-03-13T13:40:10.108Z,98389.16
2023-03-13T13:44:26.889Z,98363.44
2023-03-13T13:48:35.902Z,98389.53
2023-03-13T13:52:41.704Z,98404.66
2023-03-13T13:56:48.198Z,98412.53
2023-03-13T14:00:59.594Z,98419.44
2023-03-13T14:05:09.007Z,98429.69
2023-03-13T14:09:30.352Z,98437.38
2023-03-13T14:13:32.397Z,98438.19
2023-03-13T14:17:51.109Z,98430.06
2023-03-13T14:22:00.190Z,98410.56
2023-03-13T14:26:27.172Z,98420.91
2023-03-13T14:30:29.315Z,98396.69
2023-03-13T14:34:32.805Z,98390.09
2023-03-13T14:38:34.944Z,98389.84
2023-03-13T14:42:44.027Z,98395.75
2023-03-13T14:46:46.122Z,98384.78
2023-03-13T14:50:49.234Z,98392.56
2023-03-13T14:55:06.564Z,98391.41
2023-03-13T14:59:22.886Z,98390.06
2023-03-13T15:03:30.297Z,98366.38
2023-03-13T15:07:48.422Z,98358.47
2023-03-13T15:12:00.826Z,98354.28
2023-03-13T15:16:04.139Z,98355.75
2023-03-13T15:20:09.856Z,98362.13
2023-03-13T15:24:16.201Z,98342.88
2023-03-13T15:28:23.587Z,98341.19
2023-03-13T15:32:40.286Z,98328.59
2023-03-13T15:36:42.686Z,98326.13
2023-03-13T15:40:47.946Z,98341.06
2023-03-13T15:44:50.101Z,98333.41
2023-03-13T15:48:52.682Z,98315.19
2023-03-13T15:52:58.264Z,98296.56
2023-03-13T15:57:00.299Z,98289.81
2023-03-13T16:01:08.415Z,98292.22
2023-03-13T16:05:15.294Z,98298.69
2023-03-13T16:09:20.075Z,98291.03
2023-03-13T16:13:24.522Z,98288.94
2023-03-13T16:17:28.504Z,98277.22
2023-03-13T16:21:33.409Z,98259.63
2023-03-13T16:25:36.074Z,98256.00
2023-03-13T16:29:38.452Z,98236.84
2023-03-13T16:33:40.318Z,98241.25
2023-03-13T16:37:42.238Z,98235.69
2023-03-13T16:41:44.123Z,98215.50
2023-03-13T16:45:49.273Z,98216.31
2023-03-13T16:49:54.400Z,98206.44
2023-03-13T16:53:59.775Z,98206.91
2023-03-13T16:58:04.884Z,98201.03
2023-03-13T17:02:18.318Z,98201.44
2023-03-13T17:06:26.465Z,98180.19
2023-03-13T17:10:34.925Z,98177.97
2023-03-13T17:14:39.071Z,98183.41
2023-03-13T17:18:42.020Z,98184.75
2023-03-13T17:22:47.703Z,98175.00
2023-03-13T17:26:49.670Z,98187.03
2023-03-13T17:30:51.535Z,98192.22
2023-03-13T17:34:56.325Z,98182.25
2023-03-13T17:39:01.418Z,98176.53
2023-03-13T17:43:03.258Z,98181.97
2023-03-13T17:47:15.675Z,98177.59
2023-03-13T17:51:23.593Z,98178.88
2023-03-13T17:55:28.127Z,98175.47
2023-03-13T17:59:30.580Z,98157.03
2023-03-13T18:03:32.648Z,98157.53
2023-03-13T18:07:39.060Z,98169.34
2023-03-13T18:11:41.483Z,98161.66
2023-03-13T18:15:43.384Z,98135.31
2023-03-13T18:19:46.161Z,98139.03
2023-03-13T18:23:51.442Z,98148.44
2023-03-13T18:27:55.571Z,98141.94
2023-03-13T18:32:02.861Z,98146.63
2023-03-13T18:36:19.561Z,98140.41
2023-03-13T18:40:27.050Z,98103.31
2023-03-13T18:44:33.554Z,98107.63
2023-03-13T18:48:35.600Z,98123.31
2023-03-13T18:52:40.642Z,98116.50
2023-03-13T18:56:46.177Z,98101.34
2023-03-13T19:00:48.195Z,98100.06
2023-03-13T19:04:53.135Z,98111.94
2023-03-13T19:09:41.539Z,98108.72
2023-03-13T19:13:39.756Z,98121.09
2023-03-13T19:17:41.644Z,98130.44
2023-03-13T19:21:44.022Z,98123.06
2023-03-13T19:25:47.032Z,98162.53
2023-03-13T19:29:49.226Z,98219.53
2023-03-13T19:33:54.881Z,98362.59
2023-03-13T19:37:56.788Z,98296.72
2023-03-13T19:41:58.859Z,98300.53
2023-03-13T19:46:26.399Z,98285.03
2023-03-13T19:50:28.308Z,98269.72
2023-03-13T19:54:30.131Z,98251.75
2023-03-13T19:58:31.951Z,98245.63
2023-03-13T20:02:33.833Z,98229.88
2023-03-13T20:06:36.115Z,98215.34
2023-03-13T20:10:38.144Z,98200.25
2023-03-13T20:14:40.578Z,98196.66
2023-03-13T20:18:50.006Z,98202.91
2023-03-13T20:22:54.230Z,98199.72
2023-03-13T20:26:56.778Z,98185.63
2023-03-13T20:31:03.255Z,98168.88
2023-03-13T20:35:10.637Z,98156.41
2023-03-13T20:39:12.722Z,98127.56
2023-03-13T20:43:16.664Z,98119.09
2023-03-13T20:47:18.442Z,98112.47
2023-03-13T20:51:20.313Z,98087.03
2023-03-13T20:55:22.315Z,98080.00
2023-03-13T20:59:24.549Z,98070.91
2023-03-13T21:03:26.962Z,98073.75
2023-03-13T21:07:28.786Z,98088.88
2023-03-13T21:11:30.584Z,98077.75
2023-03-13T21:15:32.476Z,98086.03
2023-03-13T21:19:34.565Z,98078.34
2023-03-13T21:23:39.493Z,98087.25
2023-03-13T21:27:43.816Z,98089.25
2023-03-13T21:31:45.891Z,98066.88
2023-03-13T21:35:49.148Z,98050.94
2023-03-13T21:39:52.259Z,98054.19
2023-03-13T21:43:55.825Z,98048.16
2023-03-13T21:47:58.763Z,98044.47
2023-03-13T21:52:00.575Z,98042.25
2023-03-13T21:56:05.396Z,98045.22
2023-03-13T22:00:10.776Z,98050.47
2023-03-13T22:04:12.582Z,98060.59
2023-03-13T22:08:14.601Z,98079.94
2023-03-13T22:12:18.268Z,98089.66
2023-03-13T22:16:21.188Z,98103.97
2023-03-13T22:20:23.178Z,98088.44
2023-03-13T22:24:25.620Z,98093.06
2023-03-13T22:28:27.766Z,98105.38
2023-03-13T22:32:30.299Z,98115.66
2023-03-13T22:36:32.937Z,98122.91
2023-03-13T22:40:35.401Z,98135.22
2023-03-13T22:44:37.193Z,98148.94
2023-03-13T22:48:40.096Z,98162.25
2023-03-13T22:52:42.115Z,98155.81
2023-03-13T22:56:44.078Z,98157.75
2023-03-13T23:00:46.092Z,98159.41
2023-03-13T23:04:48.006Z,98162.66
2023-03-13T23:08:50.518Z,98149.56
2023-03-13T23:12:52.361Z,98151.53
2023-03-13T23:16:54.144Z,98129.16
2023-03-13T23:20:55.945Z,98117.47
2023-03-13T23:24:58.008Z,98129.53
2023-03-13T23:28:59.876Z,98110.41
2023-03-13T23:33:02.007Z,98071.72
2023-03-13T23:37:03.828Z,98023.97
2023-03-13T23:41:13.317Z,97969.22
2023-03-13T23:45:15.222Z,97950.69
2023-03-13T23:49:17.054Z,97946.84
2023-03-13T23:53:18.983Z,97934.16
2023-03-13T23:57:20.768Z,97934.16
